Map

Track Data

SID SEASON NUMBER BASIN SUBBASIN NAME ISO_TIME NATURE LAT LON WMO_WIND WMO_PRES WMO_AGENCY TRACK_TYPE DIST2LAND LANDFALL IFLAG USA_AGENCY USA_ATCF_ID USA_LAT USA_LON USA_RECORD USA_STATUS USA_WIND USA_PRES USA_SSHS USA_R34_NE USA_R34_SE USA_R34_SW USA_R34_NW USA_R50_NE USA_R50_SE USA_R50_SW USA_R50_NW USA_R64_NE USA_R64_SE USA_R64_SW USA_R64_NW USA_POCI USA_ROCI USA_RMW USA_EYE TOKYO_LAT TOKYO_LON TOKYO_GRADE TOKYO_WIND TOKYO_PRES TOKYO_R50_DIR TOKYO_R50_LONG TOKYO_R50_SHORT TOKYO_R30_DIR TOKYO_R30_LONG TOKYO_R30_SHORT TOKYO_LAND CMA_LAT CMA_LON CMA_CAT CMA_WIND CMA_PRES HKO_LAT HKO_LON HKO_CAT HKO_WIND HKO_PRES NEWDELHI_LAT NEWDELHI_LON NEWDELHI_GRADE NEWDELHI_WIND NEWDELHI_PRES NEWDELHI_CI NEWDELHI_DP NEWDELHI_POCI REUNION_LAT REUNION_LON REUNION_TYPE REUNION_WIND REUNION_PRES REUNION_TNUM REUNION_CI REUNION_RMW REUNION_R34_NE REUNION_R34_SE REUNION_R34_SW REUNION_R34_NW REUNION_R50_NE REUNION_R50_SE REUNION_R50_SW REUNION_R50_NW REUNION_R64_NE REUNION_R64_SE REUNION_R64_SW REUNION_R64_NW BOM_LAT BOM_LON BOM_TYPE BOM_WIND BOM_PRES BOM_TNUM BOM_CI BOM_RMW BOM_R34_NE BOM_R34_SE BOM_R34_SW BOM_R34_NW BOM_R50_NE BOM_R50_SE BOM_R50_SW BOM_R50_NW BOM_R64_NE BOM_R64_SE BOM_R64_SW BOM_R64_NW BOM_ROCI BOM_POCI BOM_EYE BOM_POS_METHOD BOM_PRES_METHOD NADI_LAT NADI_LON NADI_CAT NADI_WIND NADI_PRES WELLINGTON_LAT WELLINGTON_LON WELLINGTON_WIND WELLINGTON_PRES DS824_LAT DS824_LON DS824_STAGE DS824_WIND DS824_PRES TD9636_LAT TD9636_LON TD9636_STAGE TD9636_WIND TD9636_PRES TD9635_LAT TD9635_LON TD9635_WIND TD9635_PRES TD9635_ROCI NEUMANN_LAT NEUMANN_LON NEUMANN_CLASS NEUMANN_WIND NEUMANN_PRES MLC_LAT MLC_LON MLC_CLASS MLC_WIND MLC_PRES USA_GUST BOM_GUST BOM_GUST_PER REUNION_GUST REUNION_GUST_PER USA_SEAHGT USA_SEARAD_NE USA_SEARAD_SE USA_SEARAD_SW USA_SEARAD_NW STORM_SPEED STORM_DIR
2017333S08100 2018 101 SI WA DAHLIA 2017-11-28 12:00:00 NR -8.40000 99.6000 main 569 533 O_____________ jtwc_sh SH012018 -8.40000 99.6000 DB 20 1007 -3 1007 175 40 8 75
2017333S08100 2018 101 SI WA DAHLIA 2017-11-28 15:00:00 NR -8.29515 99.9850 main 533 504 P_____________ SH012018 -8.29515 99.9850 DB 20 1007 -3 1007 185 42 7 74
2017333S08100 2018 101 SI WA DAHLIA 2017-11-28 18:00:00 NR -8.20000 100.300 main 504 482 O_____________ jtwc_sh SH012018 -8.20000 100.300 DB 20 1007 -3 1007 195 45 6 72
2017333S08100 2018 101 SI WA DAHLIA 2017-11-28 21:00:00 NR -8.12734 100.520 main 482 461 P_____________ SH012018 -8.12734 100.520 DB 22 1005 -3 1007 200 45 5 79
2017333S08100 2018 101 SI WA DAHLIA 2017-11-29 00:00:00 TS -8.10000 100.800 main 461 430 O_____________ jtwc_sh SH012018 -8.10000 100.800 TD 25 1004 -1 1008 205 45 8 89
2017333S08100 2018 101 SI WA DAHLIA 2017-11-29 03:00:00 TS -8.12010 101.313 main 430 393 P_____________ SH012018 -8.12010 101.313 TD 27 1003 -1 1008 205 45 11 95
2017333S08100 2018 101 SI WA DAHLIA 2017-11-29 06:00:00 TS -8.20000 101.900 main 393 351 O_____________ jtwc_sh SH012018 -8.20000 101.900 TD 30 1002 -1 1008 205 45 11 101
2017333S08100 2018 101 SI WA DAHLIA 2017-11-29 09:00:00 TS -8.33494 102.415 main 351 317 P_____________ SH012018 -8.33494 102.415 TD 32 1001 -1 1007 197 45 10 107
2017333S08100 2018 101 SI WA DAHLIA 2017-11-29 12:00:00 TS -8.50000 102.900 main 317 290 O_____________ jtwc_sh SH012018 -8.50000 102.900 TS 35 1000 0 100 60 60 80 1007 190 45 10 110
2017333S08100 2018 101 SI WA DAHLIA 2017-11-29 15:00:00 TS -8.65726 103.320 main 298 272 P_____________ SH012018 -8.65726 103.320 TS 35 1000 0 105 70 75 90 1006 170 60 9 109
2017333S08100 2018 101 SI WA DAHLIA 2017-11-29 18:00:00 TS -8.80000 103.800 main 272 251 O_____________ jtwc_sh SH012018 -8.80000 103.800 TS 35 1000 0 110 80 90 100 1006 150 75 12 103
2017333S08100 2018 101 SI WA DAHLIA 2017-11-29 21:00:00 TS -8.91513 104.478 main 247 222 P_____________ SH012018 -8.91513 104.478 TS 37 998 0 115 85 100 110 1006 145 75 14 98
2017333S08100 2018 101 SI WA DAHLIA 2017-11-30 00:00:00 TS -9.00000 105.200 main 222 191 O_____________ jtwc_sh SH012018 -9.00000 105.200 TS 40 997 0 120 90 110 120 1006 140 75 14 96
2017333S08100 2018 101 SI WA DAHLIA 2017-11-30 03:00:00 TS -9.04992 105.838 main 191 190 P_____________ SH012018 -9.04992 105.838 TS 40 997 0 115 90 105 120 1006 145 75 12 95
2017333S08100 2018 101 SI WA DAHLIA 2017-11-30 06:00:00 TS -9.10000 106.400 main 190 190 O_____________ jtwc_sh SH012018 -9.10000 106.400 TS 40 997 0 110 90 100 120 1006 150 75 10 98
2017333S08100 2018 101 SI WA DAHLIA 2017-11-30 09:00:00 TS -9.19235 106.873 main 195 184 P_____________ SH012018 -9.19235 106.873 TS 42 996 0 105 85 95 115 1005 180 60 9 103
2017333S08100 2018 101 SI WA DAHLIA 2017-11-30 12:00:00 TS -9.30000 107.300 main 187 182 O_____________ jtwc_sh SH012018 -9.30000 107.300 TS 45 995 0 100 80 90 110 1005 210 45 9 104
2017333S08100 2018 101 SI WA DAHLIA 2017-11-30 15:00:00 TS -9.39991 107.743 main 190 187 P_____________ SH012018 -9.39991 107.743 TS 45 994 0 100 75 90 110 1004 155 37 9 103
2017333S08100 2018 101 SI WA DAHLIA 2017-11-30 18:00:00 TS -9.50000 108.200 main 191 190 O_____________ jtwc_sh SH012018 -9.50000 108.200 TS 45 993 0 100 70 90 110 1003 100 30 10 101
2017333S08100 2018 101 SI WA DAHLIA 2017-11-30 21:00:00 TS -9.59255 108.715 main 204 201 P_____________ SH012018 -9.59255 108.715 TS 50 990 0 95 70 90 110 21 15 21 27 1003 107 32 10 101
2017333S08100 2018 101 SI WA DAHLIA 2017-12-01 00:00:00 TS -9.70000 109.200 main 213 209 O_____________ jtwc_sh SH012018 -9.70000 109.200 TS 55 988 0 90 70 90 110 42 30 42 55 1003 115 35 9 106
2017333S08100 2018 101 SI WA DAHLIA 2017-12-01 03:00:00 TS -9.83492 109.588 main 212 212 P_____________ SH012018 -9.83492 109.588 TS 52 990 0 90 70 85 100 42 29 39 48 1003 122 35 8 114
2017333S08100 2018 101 SI WA DAHLIA 2017-12-01 06:00:00 TS -10.0000 109.900 main 219 215 O_____________ jtwc_sh SH012018 -10.0000 109.900 TS 50 992 0 90 70 80 90 42 29 36 42 1004 130 35 7 122
2017333S08100 2018 101 SI WA DAHLIA 2017-12-01 09:00:00 TS -10.2075 110.187 main 230 230 P_____________ SH012018 -10.2075 110.187 TS 50 992 0 85 70 75 85 39 29 32 39 1004 137 35 6 129
2017333S08100 2018 101 SI WA DAHLIA 2017-12-01 12:00:00 TS -10.4000 110.400 main 248 248 O_____________ jtwc_sh SH012018 -10.4000 110.400 TS 50 992 0 80 70 70 80 36 29 29 36 1005 145 35 4 134
2017333S08100 2018 101 SI WA DAHLIA 2017-12-01 15:00:00 TS -10.5150 110.515 main 258 258 P_____________ SH012018 -10.5150 110.515 TS 50 992 0 75 70 65 75 32 29 26 32 1004 147 27 3 135
2017333S08100 2018 101 SI WA DAHLIA 2017-12-01 18:00:00 TS -10.6000 110.600 main 265 263 O_____________ jtwc_sh SH012018 -10.6000 110.600 TS 50 992 0 70 70 60 70 29 29 23 29 1004 150 20 3 131
2017333S08100 2018 101 SI WA DAHLIA 2017-12-01 21:00:00 TS -10.7075 110.735 main 274 272 P_____________ SH012018 -10.7075 110.735 TS 47 994 0 70 60 55 70 1005 162 20 4 124
2017333S08100 2018 101 SI WA DAHLIA 2017-12-02 00:00:00 TS -10.8000 110.900 main 281 276 O_____________ jtwc_sh SH012018 -10.8000 110.900 TS 45 996 0 70 50 50 70 1006 175 20 4 112
2017333S08100 2018 101 SI WA DAHLIA 2017-12-02 03:00:00 TS -10.8424 111.070 main 276 276 P_____________ SH012018 -10.8424 111.070 TS 42 997 0 65 50 50 65 1006 180 22 4 104
2017333S08100 2018 101 SI WA DAHLIA 2017-12-02 06:00:00 TS -10.9000 111.300 main 283 280 O_____________ jtwc_sh SH012018 -10.9000 111.300 TS 40 999 0 60 50 50 60 1006 185 25 6 106
2017333S08100 2018 101 SI WA DAHLIA 2017-12-02 09:00:00 TS -11.0126 111.657 main 291 291 P_____________ SH012018 -11.0126 111.657 TS 40 999 0 60 50 45 60 1006 182 25 8 114
2017333S08100 2018 101 SI WA DAHLIA 2017-12-02 12:00:00 TS -11.2000 112.000 main 315 315 O_____________ jtwc_sh SH012018 -11.2000 112.000 TS 40 999 0 60 50 40 60 1006 180 25 7 131
2017333S08100 2018 101 SI WA DAHLIA 2017-12-02 15:00:00 TS -11.4699 112.195 main 351 351 P_____________ SH012018 -11.4699 112.195 TS 37 1000 0 60 50 35 60 1006 192 25 7 154
2017333S08100 2018 101 SI WA DAHLIA 2017-12-02 18:00:00 TS -11.8000 112.300 main 383 383 O_____________ jtwc_sh SH012018 -11.8000 112.300 TS 35 1002 0 60 50 30 60 1007 205 25 7 164
2017333S08100 2018 101 SI WA DAHLIA 2017-12-02 21:00:00 TS -12.0975 112.373 main 415 415 P_____________ SH012018 -12.0975 112.373 TS 35 1002 0 60 50 30 55 1006 202 25 7 172
2017333S08100 2018 101 SI WA DAHLIA 2017-12-03 00:00:00 TS -12.5000 112.400 main 460 460 O_____________ jtwc_sh SH012018 -12.5000 112.400 TS 35 1002 0 60 50 30 50 1006 200 25 10 177
2017333S08100 2018 101 SI WA DAHLIA 2017-12-03 03:00:00 TS -13.1200 112.430 main 526 526 P_____________ SH012018 -13.1200 112.430 TS 35 1002 0 50 45 25 45 1006 185 25 13 179
2017333S08100 2018 101 SI WA DAHLIA 2017-12-03 06:00:00 TS -13.8000 112.400 main 602 602 O_____________ jtwc_sh SH012018 -13.8000 112.400 TS 35 1002 0 40 40 20 40 1006 170 25 13 187
2017333S08100 2018 101 SI WA DAHLIA 2017-12-03 09:00:00 TS -14.3875 112.273 main 669 669 P_____________ SH012018 -14.3875 112.273 TS 35 1002 0 35 35 20 25 1006 170 25 11 195
2017333S08100 2018 101 SI WA DAHLIA 2017-12-03 12:00:00 TS -14.9000 112.100 main 729 729 O_____________ jtwc_sh SH012018 -14.9000 112.100 TS 35 1002 0 30 30 20 10 1006 170 25 10 198
2017333S08100 2018 101 SI WA DAHLIA 2017-12-03 15:00:00 TS -15.3375 111.957 main 767 731 P_____________ SH012018 -15.3375 111.957 TS 32 1003 -1 1006 170 27 9 200
2017333S08100 2018 101 SI WA DAHLIA 2017-12-03 18:00:00 TS -15.7000 111.800 main 731 706 O_____________ jtwc_sh SH012018 -15.7000 111.800 TD 30 1004 -1 1006 170 30 7 207
2017333S08100 2018 101 SI WA DAHLIA 2017-12-03 21:00:00 TS -16.0000 111.607 main 706 683 P_____________ SH012018 -16.0000 111.607 TD 27 1004 -1 1006 160 30 7 213
2017333S08100 2018 101 SI WA DAHLIA 2017-12-04 00:00:00 TS -16.3000 111.400 main 683 651 O_____________ jtwc_sh SH012018 -16.3000 111.400 TD 25 1005 -1 1007 150 30 8 210
2017333S08100 2018 101 SI WA DAHLIA 2017-12-04 03:00:00 TS -16.7150 111.178 main 651 622 P_____________ SH012018 -16.7150 111.178 TD 25 1005 -1 1007 150 30 9 206
2017333S08100 2018 101 SI WA DAHLIA 2017-12-04 06:00:00 TS -17.1000 111.000 main 622 602 O_____________ jtwc_sh SH012018 -17.1000 111.000 TD 25 1005 -1 1007 150 30 7 200
2017333S08100 2018 101 SI WA DAHLIA 2017-12-04 09:00:00 TS -17.3374 110.942 main 608 589 P_____________ SH012018 -17.3374 110.942 TD 25 1005 -1 1007 150 30 4 193
2017333S08100 2018 101 SI WA DAHLIA 2017-12-04 12:00:00 TS -17.5000 110.900 main 589 576 O_____________ jtwc_sh SH012018 -17.5000 110.900 TD 25 1005 -1 1007 150 30 4 207
2017333S08100 2018 101 SI WA DAHLIA 2017-12-04 15:00:00 TS -17.6950 110.758 main 576 573 P_____________ SH012018 -17.6950 110.758 TD 25 1005 -1 1007 150 30 4 223
2017333S08100 2018 101 SI WA DAHLIA 2017-12-04 18:00:00 TS -17.8000 110.600 main 580 580 O_____________ jtwc_sh SH012018 -17.8000 110.600 TD 25 1005 -1 1007 150 30 3 259
2017333S08100 2018 101 SI WA DAHLIA 2017-12-04 21:00:00 TS -17.7450 110.477 main 595 595 P_____________ SH012018 -17.7450 110.477 TD 25 1004 -1 1006 150 30 3 316
2017333S08100 2018 101 SI WA DAHLIA 2017-12-05 00:00:00 TS -17.6000 110.400 main 610 610 O_____________ jtwc_sh SH012018 -17.6000 110.400 TD 25 1004 -1 1006 150 30 3 341
2017333S08100 2018 101 SI WA DAHLIA 2017-12-05 03:00:00 TS -17.4575 110.378 main 619 619 P_____________ SH012018 -17.4575 110.378 TD 25 1004 -1 1006 150 30 3 0
2017333S08100 2018 101 SI WA DAHLIA 2017-12-05 06:00:00 TS -17.3000 110.400 main 637 637 O_____________ jtwc_sh SH012018 -17.3000 110.400 TD 25 1004 -1 1006 150 30 3 9
2017333S08100 2018 101 SI WA DAHLIA 2017-12-05 09:00:00 TS -17.1425 110.435 main 656 650 P_____________ SH012018 -17.1425 110.435 TD 22 1004 -1 1006 150 30 3 17
2017333S08100 2018 101 SI WA DAHLIA 2017-12-05 12:00:00 NR -17.0000 110.500 main 659 659 O_____________ jtwc_sh SH012018 -17.0000 110.500 DB 20 1005 -3 1007 150 30 3 31
2017333S08100 2018 101 SI WA DAHLIA 2017-12-05 15:00:00 NR -16.9075 110.585 main 663 663 P_____________ SH012018 -16.9075 110.585 DB 20 1005 -3 1007 150 30 3 44
2017333S08100 2018 101 SI WA DAHLIA 2017-12-05 18:00:00 NR -16.8000 110.700 main 667 667 O_____________ jtwc_sh SH012018 -16.8000 110.700 DB 20 1005 -3 1007 150 30 4 41
2017333S08100 2018 101 SI WA DAHLIA 2017-12-05 21:00:00 NR -16.6225 110.843 main 681 676 P_____________ SH012018 -16.6225 110.843 DB 20 1005 -3 1007 140 30 5 36
2017333S08100 2018 101 SI WA DAHLIA 2017-12-06 00:00:00 NR -16.4000 111.000 main 691 691 O_____________ jtwc_sh SH012018 -16.4000 111.000 DB 20 1006 -3 1007 130 30 5 33
2017333S08100 2018 101 SI WA DAHLIA 2017-12-06 03:00:00 NR -16.1725 111.142 main 706 702 P_____________ SH012018 -16.1725 111.142 DB 17 1007 -3 1008 130 30 6 30
2017333S08100 2018 101 SI WA DAHLIA 2017-12-06 06:00:00 NR -15.9000 111.300 main 728 728 O_____________ jtwc_sh SH012018 -15.9000 111.300 DB 15 1008 -3 1010 130 30 7 27
2017333S08100 2018 101 SI WA DAHLIA 2017-12-06 09:00:00 NR -15.5500 111.477 main 762 761 P_____________ SH012018 -15.5500 111.477 DB 15 1008 -3 1010 130 30 8 29
2017333S08100 2018 101 SI WA DAHLIA 2017-12-06 12:00:00 NR -15.2000 111.700 main 761 728 O_____________ jtwc_sh SH012018 -15.2000 111.700 DB 15 1008 -3 1010 130 30 8 38
2017333S08100 2018 101 SI WA DAHLIA 2017-12-06 15:00:00 NR -14.9350 111.977 main 728 702 P_____________ SH012018 -14.9350 111.977 DB 15 1009 -3 30 8 49
2017333S08100 2018 101 SI WA DAHLIA 2017-12-06 18:00:00 NR -14.7000 112.300 main 702 673 O_____________ jtwc_sh SH012018 -14.7000 112.300 DB 15 1010 -3 30 8 53
2017333S08100 2018 101 SI WA DAHLIA 2017-12-06 21:00:00 NR -14.4551 112.645 main 673 629 P_____________ SH012018 -14.4551 112.645 DB 12 1011 -3 30 8 54
2017333S08100 2018 101 SI WA DAHLIA 2017-12-07 00:00:00 NR -14.2000 113.000 main 629 O_____________ jtwc_sh SH012018 -14.2000 113.000 DB 10 1012 -3 30 9 54

About IBTrACS Database

This database is a web-friendly format of International Best Track Archive for Climate Stewardship (IBTrACS), a global best track data archive curated by NOAA dating back to 1842.

Updated: 2022-01-26